createdAt,value
2022-12-08T00:02:51.599Z,0.09
2022-12-08T00:06:13.202Z,-0.02
2022-12-08T00:09:39.774Z,-0.07
2022-12-08T00:12:42.481Z,0.08
2022-12-08T00:15:44.968Z,0.00
2022-12-08T00:18:47.657Z,0.04
2022-12-08T00:21:50.984Z,0.09
2022-12-08T00:24:55.518Z,0.06
2022-12-08T00:27:58.247Z,0.09
2022-12-08T00:31:08.497Z,0.15
2022-12-08T00:34:12.459Z,0.18
2022-12-08T00:37:14.920Z,0.16
2022-12-08T00:40:17.134Z,0.21
2022-12-08T00:43:19.572Z,0.12
2022-12-08T00:46:22.163Z,0.17
2022-12-08T00:49:25.087Z,0.24
2022-12-08T00:52:27.487Z,0.33
2022-12-08T00:55:31.528Z,0.34
2022-12-08T00:58:35.337Z,0.40
2022-12-08T01:01:39.673Z,0.39
2022-12-08T01:04:42.354Z,0.41
2022-12-08T01:07:45.126Z,0.39
2022-12-08T01:10:47.438Z,0.36
2022-12-08T01:13:50.155Z,0.43
2022-12-08T01:16:53.962Z,0.36
2022-12-08T01:20:00.336Z,0.20
2022-12-08T01:23:02.550Z,0.20
2022-12-08T01:26:06.873Z,0.14
2022-12-08T01:29:09.907Z,0.09
2022-12-08T01:32:12.485Z,0.07
2022-12-08T01:35:14.942Z,0.01
2022-12-08T01:38:17.776Z,-0.01
2022-12-08T01:41:29.576Z,-0.07
2022-12-08T01:44:32.629Z,-0.08
2022-12-08T01:47:40.648Z,-0.13
2022-12-08T01:50:44.220Z,-0.16
2022-12-08T01:53:48.293Z,-0.21
2022-12-08T01:56:55.957Z,-0.22
2022-12-08T02:00:05.767Z,-0.11
2022-12-08T02:03:36.955Z,-0.11
2022-12-08T02:06:43.329Z,-0.04
2022-12-08T02:09:47.922Z,-0.09
2022-12-08T02:12:53.026Z,-0.11
2022-12-08T02:16:32.036Z,-0.35
2022-12-08T02:20:19.718Z,-0.25
2022-12-08T02:23:33.542Z,-0.36
2022-12-08T02:26:56.633Z,-0.33
2022-12-08T02:30:07.023Z,-0.34
2022-12-08T02:33:33.093Z,-0.32
2022-12-08T02:37:10.321Z,-0.27
2022-12-08T02:40:41.722Z,-0.15
2022-12-08T02:43:47.548Z,-0.17
2022-12-08T02:46:59.276Z,-0.09
2022-12-08T02:50:04.342Z,-0.08
2022-12-08T02:56:28.581Z,-0.12
2022-12-08T02:59:39.988Z,-0.08
2022-12-08T03:02:45.372Z,-0.11
2022-12-08T03:06:09.573Z,-0.08
2022-12-08T03:09:39.180Z,-0.08
2022-12-08T03:13:12.443Z,-0.07
2022-12-08T03:16:19.895Z,-0.10
2022-12-08T03:19:26.858Z,-0.14
2022-12-08T03:22:29.270Z,-0.20
2022-12-08T03:25:37.981Z,-0.06
2022-12-08T03:28:41.813Z,-0.20
2022-12-08T03:31:52.154Z,-0.21
2022-12-08T03:34:57.412Z,-0.09
2022-12-08T03:38:07.098Z,-0.10
2022-12-08T03:41:19.798Z,-0.13
2022-12-08T03:44:22.330Z,-0.03
2022-12-08T03:47:24.638Z,0.06
2022-12-08T03:50:27.406Z,0.09
2022-12-08T03:53:29.764Z,0.14
2022-12-08T03:56:35.481Z,0.11
2022-12-08T03:59:39.066Z,0.14
2022-12-08T04:02:43.213Z,0.11
2022-12-08T04:05:48.162Z,0.16
2022-12-08T04:08:50.858Z,0.28
2022-12-08T04:11:53.461Z,0.32
2022-12-08T04:14:57.515Z,0.33
2022-12-08T04:18:03.829Z,0.31
2022-12-08T04:21:06.401Z,0.20
2022-12-08T04:24:10.480Z,0.28
2022-12-08T04:27:12.649Z,0.36
2022-12-08T04:30:15.060Z,0.45
2022-12-08T04:33:17.685Z,0.49
2022-12-08T04:36:22.517Z,0.45
2022-12-08T04:39:24.918Z,0.47
2022-12-08T04:42:27.689Z,0.46
2022-12-08T04:45:30.918Z,0.44
2022-12-08T04:48:34.363Z,0.38
2022-12-08T04:51:37.027Z,0.37
2022-12-08T04:54:39.477Z,0.39
2022-12-08T04:57:41.698Z,0.38
2022-12-08T05:00:44.548Z,0.37
2022-12-08T05:03:46.762Z,0.40
2022-12-08T05:06:49.222Z,0.30
2022-12-08T05:09:51.384Z,0.34
2022-12-08T05:12:53.881Z,0.34
2022-12-08T05:16:09.486Z,0.31
2022-12-08T05:19:15.735Z,0.32
2022-12-08T05:22:18.270Z,0.36
2022-12-08T05:25:20.877Z,0.40
2022-12-08T05:31:46.003Z,0.47
2022-12-08T05:34:48.214Z,0.43
2022-12-08T05:37:50.769Z,0.52
2022-12-08T05:40:52.876Z,0.58
2022-12-08T05:43:55.386Z,0.55
2022-12-08T05:46:59.378Z,0.59
2022-12-08T05:50:03.592Z,0.52
2022-12-08T05:53:06.509Z,0.55
2022-12-08T05:56:09.201Z,0.57
2022-12-08T05:59:11.584Z,0.65
2022-12-08T06:02:14.131Z,0.74
2022-12-08T06:05:16.809Z,0.78
2022-12-08T06:08:19.089Z,0.79
2022-12-08T06:11:29.546Z,0.84
2022-12-08T06:14:33.861Z,0.61
2022-12-08T06:17:37.640Z,0.76
2022-12-08T06:20:39.898Z,0.78
2022-12-08T06:23:42.741Z,0.75
2022-12-08T06:26:45.893Z,0.73
2022-12-08T06:29:48.401Z,0.73
2022-12-08T06:32:50.629Z,0.80
2022-12-08T06:35:53.417Z,0.67
2022-12-08T06:38:56.189Z,0.72
2022-12-08T06:42:17.579Z,0.75
2022-12-08T06:45:19.898Z,0.71
2022-12-08T06:48:22.346Z,0.72
2022-12-08T06:51:24.593Z,0.80
2022-12-08T06:54:27.434Z,0.88
2022-12-08T06:57:29.722Z,0.87
2022-12-08T07:00:32.369Z,0.94
2022-12-08T07:03:35.918Z,1.00
2022-12-08T07:06:38.600Z,1.06
2022-12-08T07:09:40.690Z,1.12
2022-12-08T07:12:43.124Z,1.19
2022-12-08T07:15:45.289Z,1.30
2022-12-08T07:18:48.038Z,1.32
2022-12-08T07:21:50.311Z,1.36
2022-12-08T07:24:52.723Z,1.41
2022-12-08T07:27:54.909Z,1.49
2022-12-08T07:30:57.502Z,1.52
2022-12-08T07:33:59.742Z,1.45
2022-12-08T07:37:02.457Z,1.38
2022-12-08T07:40:09.244Z,1.47
2022-12-08T07:43:11.598Z,1.64
2022-12-08T07:46:16.320Z,1.76
2022-12-08T07:49:18.775Z,1.74
2022-12-08T07:52:20.886Z,1.72
2022-12-08T07:55:23.279Z,1.87
2022-12-08T07:58:25.914Z,1.97
2022-12-08T08:01:31.976Z,2.06
2022-12-08T08:04:34.524Z,2.03
2022-12-08T08:07:37.263Z,2.18
2022-12-08T08:10:39.699Z,2.24
2022-12-08T08:13:41.898Z,2.29
2022-12-08T08:16:46.870Z,2.48
2022-12-08T08:19:49.142Z,2.54
2022-12-08T08:22:52.435Z,2.54
2022-12-08T08:25:54.890Z,2.65
2022-12-08T08:28:57.571Z,2.74
2022-12-08T08:31:59.764Z,2.86
2022-12-08T08:35:02.319Z,2.97
2022-12-08T08:38:04.487Z,3.10
2022-12-08T08:41:09.202Z,3.25
2022-12-08T08:44:13.879Z,3.32
2022-12-08T08:47:16.407Z,3.42
2022-12-08T08:50:18.984Z,3.50
2022-12-08T08:53:21.772Z,3.63
2022-12-08T08:56:24.247Z,3.70
2022-12-08T08:59:29.343Z,3.75
2022-12-08T09:02:31.564Z,3.86
2022-12-08T09:05:34.304Z,3.94
2022-12-08T09:08:37.573Z,3.99
2022-12-08T09:11:43.245Z,4.03
2022-12-08T09:14:46.033Z,4.04
2022-12-08T09:17:48.634Z,4.08
2022-12-08T09:20:50.844Z,4.13
2022-12-08T09:23:55.561Z,4.15
2022-12-08T09:26:57.712Z,4.20
2022-12-08T09:30:00.339Z,4.18
2022-12-08T09:33:02.498Z,4.16
2022-12-08T09:36:05.330Z,4.16
2022-12-08T09:39:09.103Z,4.05
2022-12-08T09:42:11.797Z,4.06
2022-12-08T09:45:16.460Z,4.11
2022-12-08T09:48:23.617Z,4.17
2022-12-08T09:51:31.410Z,4.21
2022-12-08T09:54:35.757Z,4.30
2022-12-08T09:57:38.011Z,4.40
2022-12-08T10:00:40.420Z,4.49
2022-12-08T10:03:43.282Z,4.46
2022-12-08T10:06:59.210Z,4.54
2022-12-08T10:10:11.600Z,4.61
2022-12-08T10:13:16.543Z,4.56
2022-12-08T10:16:29.846Z,4.58
2022-12-08T10:19:34.401Z,4.65
2022-12-08T10:22:42.866Z,4.63
2022-12-08T10:25:54.372Z,4.57
2022-12-08T10:29:02.618Z,4.71
2022-12-08T10:32:22.987Z,4.82
2022-12-08T10:35:42.088Z,4.77
2022-12-08T10:38:44.351Z,4.80
2022-12-08T10:41:46.769Z,4.84
2022-12-08T10:44:56.031Z,4.85
2022-12-08T10:48:23.827Z,4.83
2022-12-08T10:51:30.401Z,4.83
2022-12-08T10:54:37.210Z,4.84
2022-12-08T10:57:42.155Z,4.80
2022-12-08T11:00:44.829Z,4.90
2022-12-08T11:03:52.640Z,4.99
2022-12-08T11:06:55.109Z,5.02
2022-12-08T11:09:58.303Z,5.03
2022-12-08T11:13:27.317Z,5.03
2022-12-08T11:16:29.612Z,5.10
2022-12-08T11:19:37.949Z,5.12
2022-12-08T11:22:42.336Z,5.04
2022-12-08T11:25:45.121Z,5.00
2022-12-08T11:28:47.480Z,5.00
2022-12-08T11:31:57.644Z,4.96
2022-12-08T11:35:06.434Z,4.87
2022-12-08T11:38:21.490Z,4.78
2022-12-08T11:41:29.977Z,4.78
2022-12-08T11:44:58.736Z,4.83
2022-12-08T11:48:04.262Z,4.81
2022-12-08T11:51:18.468Z,4.84
2022-12-08T11:54:42.749Z,4.91
2022-12-08T11:57:45.668Z,5.04
2022-12-08T12:00:48.917Z,5.04
2022-12-08T12:04:24.697Z,5.06
2022-12-08T12:07:42.477Z,5.12
2022-12-08T12:10:54.763Z,5.02
2022-12-08T12:14:21.359Z,4.89
2022-12-08T12:17:31.225Z,5.03
2022-12-08T12:20:39.581Z,5.07
2022-12-08T12:23:54.813Z,4.95
2022-12-08T12:27:15.682Z,4.93
2022-12-08T12:30:23.404Z,4.79
2022-12-08T12:33:26.593Z,4.81
2022-12-08T12:36:29.474Z,4.79
2022-12-08T12:39:45.655Z,4.69
2022-12-08T12:43:10.723Z,4.63
2022-12-08T12:46:41.228Z,4.59
2022-12-08T12:49:45.717Z,4.67
2022-12-08T12:52:48.584Z,4.53
2022-12-08T12:56:02.352Z,4.61
2022-12-08T12:59:36.274Z,4.71
2022-12-08T13:02:43.891Z,4.70
2022-12-08T13:05:51.306Z,4.56
2022-12-08T13:08:56.208Z,4.58
2022-12-08T13:12:02.314Z,4.58
2022-12-08T13:15:07.141Z,4.67
2022-12-08T13:18:39.515Z,4.62
2022-12-08T13:21:42.354Z,4.61
2022-12-08T13:24:45.174Z,4.57
2022-12-08T13:27:55.155Z,4.64
2022-12-08T13:31:02.083Z,4.61
2022-12-08T13:34:06.839Z,4.67
2022-12-08T13:37:20.771Z,4.68
2022-12-08T13:40:27.366Z,4.73
2022-12-08T13:44:02.175Z,4.71
2022-12-08T13:53:10.330Z,4.76
2022-12-08T13:57:37.531Z,4.78
2022-12-08T14:00:40.203Z,4.84
2022-12-08T14:04:30.922Z,4.79
2022-12-08T14:07:19.849Z,4.89
2022-12-08T14:10:27.746Z,4.92
2022-12-08T14:13:34.204Z,4.83
2022-12-08T14:16:40.204Z,4.85
2022-12-08T14:19:45.177Z,4.92
2022-12-08T14:22:48.607Z,4.85
2022-12-08T14:25:50.941Z,4.77
2022-12-08T14:28:53.707Z,4.65
2022-12-08T14:31:56.050Z,4.74
2022-12-08T14:35:07.817Z,4.67
2022-12-08T14:38:14.336Z,4.66
2022-12-08T14:41:16.789Z,4.71
2022-12-08T14:44:24.444Z,4.67
2022-12-08T14:47:34.641Z,4.64
2022-12-08T14:50:40.334Z,4.73
2022-12-08T14:53:59.970Z,4.67
2022-12-08T14:57:03.195Z,4.53
2022-12-08T15:00:18.657Z,4.56
2022-12-08T15:03:23.261Z,4.57
2022-12-08T15:06:25.743Z,4.67
2022-12-08T15:09:38.905Z,4.58
2022-12-08T15:13:01.230Z,4.70
2022-12-08T15:16:43.700Z,4.62
2022-12-08T15:19:58.738Z,4.51
2022-12-08T15:23:01.016Z,4.44
2022-12-08T15:26:05.104Z,4.41
2022-12-08T15:29:20.736Z,4.41
2022-12-08T15:32:23.898Z,4.34
2022-12-08T15:35:26.217Z,4.51
2022-12-08T15:38:29.430Z,4.59
2022-12-08T15:41:31.625Z,4.53
2022-12-08T15:44:34.114Z,4.33
2022-12-08T15:47:36.318Z,4.38
2022-12-08T15:50:38.803Z,4.41
2022-12-08T15:53:42.351Z,4.35
2022-12-08T15:57:17.882Z,4.38
2022-12-08T16:00:51.012Z,4.33
2022-12-08T16:04:36.799Z,4.37
2022-12-08T16:07:29.392Z,4.37
2022-12-08T16:10:51.614Z,4.26
2022-12-08T16:13:59.555Z,4.29
2022-12-08T16:17:18.081Z,4.28
2022-12-08T16:20:24.435Z,4.39
2022-12-08T16:23:43.739Z,4.41
2022-12-08T16:30:17.192Z,4.14
2022-12-08T16:33:19.955Z,4.14
2022-12-08T16:36:22.374Z,4.20
2022-12-08T16:39:24.851Z,4.17
2022-12-08T16:42:45.817Z,4.15
2022-12-08T16:45:50.402Z,4.19
2022-12-08T16:48:52.843Z,4.13
2022-12-08T16:51:55.086Z,4.18
2022-12-08T16:54:57.653Z,4.25
2022-12-08T16:57:59.996Z,4.17
2022-12-08T17:01:03.146Z,4.18
2022-12-08T17:07:28.235Z,4.19
2022-12-08T17:10:32.095Z,4.11
2022-12-08T17:13:36.709Z,4.06
2022-12-08T17:16:39.409Z,4.06
2022-12-08T17:19:42.035Z,4.06
2022-12-08T17:22:44.754Z,4.13
2022-12-08T17:26:03.773Z,4.03
2022-12-08T17:29:06.246Z,4.05
2022-12-08T17:32:08.738Z,3.97
2022-12-08T17:35:11.246Z,4.08
2022-12-08T17:38:15.822Z,4.19
2022-12-08T17:41:17.930Z,4.17
2022-12-08T17:44:20.546Z,4.20
2022-12-08T17:47:22.787Z,4.11
2022-12-08T17:50:30.567Z,4.22
2022-12-08T17:53:37.176Z,4.21
2022-12-08T17:56:40.051Z,4.20
2022-12-08T17:59:42.171Z,4.17
2022-12-08T18:02:44.676Z,4.20
2022-12-08T18:05:50.980Z,4.24
2022-12-08T18:08:53.115Z,4.29
2022-12-08T18:11:56.013Z,4.27
2022-12-08T18:14:59.614Z,4.25
2022-12-08T18:18:02.294Z,4.17
2022-12-08T18:21:04.614Z,4.15
2022-12-08T18:24:07.995Z,4.01
2022-12-08T18:27:10.281Z,4.02
2022-12-08T18:30:16.566Z,4.00
2022-12-08T18:33:19.399Z,4.13
2022-12-08T18:36:24.783Z,4.04
2022-12-08T18:39:30.710Z,4.00
2022-12-08T18:42:33.265Z,4.11
2022-12-08T18:45:38.691Z,4.20
2022-12-08T18:48:46.521Z,4.12
2022-12-08T18:51:48.988Z,4.05
2022-12-08T18:55:05.810Z,4.00
2022-12-08T18:58:10.888Z,4.03
2022-12-08T19:01:16.050Z,4.14
2022-12-08T19:04:28.283Z,4.01
2022-12-08T19:07:31.843Z,4.06
2022-12-08T19:10:38.147Z,4.18
2022-12-08T19:13:40.855Z,4.13
2022-12-08T19:16:43.210Z,4.12
2022-12-08T19:19:45.690Z,4.02
2022-12-08T19:22:50.153Z,4.02
2022-12-08T19:25:52.582Z,4.07
2022-12-08T19:28:55.584Z,4.08
2022-12-08T19:31:58.862Z,3.99
2022-12-08T19:35:01.112Z,3.92
2022-12-08T19:38:03.668Z,4.04
2022-12-08T19:41:24.443Z,3.99
2022-12-08T19:44:28.789Z,3.99
2022-12-08T19:47:33.464Z,4.00
2022-12-08T19:50:36.238Z,4.03
2022-12-08T19:53:41.811Z,3.96
2022-12-08T19:56:47.137Z,3.93
2022-12-08T19:59:54.573Z,3.86
2022-12-08T20:03:00.270Z,3.88
2022-12-08T20:06:02.845Z,3.94
2022-12-08T20:09:05.401Z,3.85
2022-12-08T20:12:08.145Z,3.80
2022-12-08T20:15:11.102Z,3.88
2022-12-08T20:18:15.589Z,4.01
2022-12-08T20:21:17.890Z,4.08
2022-12-08T20:24:20.292Z,3.98
2022-12-08T20:27:23.656Z,3.90
2022-12-08T20:30:26.375Z,3.77
2022-12-08T20:33:28.719Z,3.82
2022-12-08T20:36:31.490Z,3.79
2022-12-08T20:39:33.899Z,3.77
2022-12-08T20:42:36.347Z,3.70
2022-12-08T20:45:38.885Z,3.68
2022-12-08T20:48:42.931Z,3.74
2022-12-08T20:51:45.293Z,3.71
2022-12-08T20:54:48.049Z,3.69
2022-12-08T20:57:50.361Z,3.76
2022-12-08T21:00:53.144Z,3.66
2022-12-08T21:03:55.561Z,3.61
2022-12-08T21:06:58.725Z,3.69
2022-12-08T21:10:01.716Z,3.68
2022-12-08T21:13:05.492Z,3.69
2022-12-08T21:16:13.277Z,3.73
2022-12-08T21:19:16.089Z,3.76
2022-12-08T21:22:18.437Z,3.68
2022-12-08T21:25:21.384Z,3.66
2022-12-08T21:28:23.783Z,3.69
2022-12-08T21:31:27.024Z,3.69
2022-12-08T21:34:34.177Z,3.65
2022-12-08T21:37:39.714Z,3.58
2022-12-08T21:40:43.251Z,3.66
2022-12-08T21:43:45.961Z,3.72
2022-12-08T21:46:48.320Z,3.68
2022-12-08T21:49:51.143Z,3.68
2022-12-08T21:52:53.536Z,3.60
2022-12-08T21:55:56.352Z,3.58
2022-12-08T21:58:58.682Z,3.51
2022-12-08T22:02:01.675Z,3.51
2022-12-08T22:05:05.005Z,3.58
2022-12-08T22:08:08.681Z,3.51
2022-12-08T22:11:12.120Z,3.58
2022-12-08T22:14:15.362Z,3.67
2022-12-08T22:17:18.710Z,3.56
2022-12-08T22:20:21.316Z,3.58
2022-12-08T22:23:23.984Z,3.57
2022-12-08T22:26:26.410Z,3.52
2022-12-08T22:29:30.054Z,3.49
2022-12-08T22:32:32.585Z,3.49
2022-12-08T22:35:35.393Z,3.56
2022-12-08T22:38:37.515Z,3.53
2022-12-08T22:41:40.155Z,3.51
2022-12-08T22:44:42.288Z,3.40
2022-12-08T22:47:44.915Z,3.44
2022-12-08T22:50:47.017Z,3.48
2022-12-08T22:53:50.148Z,3.55
2022-12-08T22:56:52.367Z,3.40
2022-12-08T22:59:56.819Z,3.26
2022-12-08T23:02:59.066Z,3.35
2022-12-08T23:06:01.810Z,3.38
2022-12-08T23:09:06.511Z,3.36
2022-12-08T23:12:09.096Z,3.23
2022-12-08T23:15:11.528Z,3.34
2022-12-08T23:18:16.766Z,3.33
2022-12-08T23:21:20.367Z,3.43
2022-12-08T23:24:22.804Z,3.44
2022-12-08T23:27:25.001Z,3.35
2022-12-08T23:30:28.947Z,3.39
2022-12-08T23:33:31.614Z,3.43
2022-12-08T23:36:34.100Z,3.39
2022-12-08T23:39:36.576Z,3.38
2022-12-08T23:42:39.364Z,3.41
2022-12-08T23:45:41.728Z,3.44
2022-12-08T23:48:44.695Z,3.38
2022-12-08T23:51:47.096Z,3.34
2022-12-08T23:54:50.398Z,3.44
2022-12-08T23:57:52.898Z,3.45
